sensor_id;sensor_type;location;lat;lon;timestamp;pressure;altitude;pressure_sealevel;temperature;humidity
67517;BME280;54359;59.124;37.910;2022-10-19T00:01:47;98959.22;;;6.89;97.29
67517;BME280;54359;59.124;37.910;2022-10-19T00:04:13;98929.28;;;6.72;97.07
67517;BME280;54359;59.124;37.910;2022-10-19T00:06:39;98945.59;;;6.85;97.29
67517;BME280;54359;59.124;37.910;2022-10-19T00:09:14;98922.47;;;6.71;97.83
67517;BME280;54359;59.124;37.910;2022-10-19T00:11:43;98951.63;;;6.93;97.25
67517;BME280;54359;59.124;37.910;2022-10-19T00:14:15;98951.66;;;6.98;97.77
67517;BME280;54359;59.124;37.910;2022-10-19T00:16:46;98949.94;;;6.98;97.42
67517;BME280;54359;59.124;37.910;2022-10-19T00:19:19;98956.81;;;7.05;97.28
67517;BME280;54359;59.124;37.910;2022-10-19T00:21:47;98963.63;;;7.03;97.33
67517;BME280;54359;59.124;37.910;2022-10-19T00:24:14;98907.09;;;6.68;96.80
67517;BME280;54359;59.124;37.910;2022-10-19T00:26:41;98955.84;;;6.93;96.51
67517;BME280;54359;59.124;37.910;2022-10-19T00:29:07;98922.34;;;6.57;96.30
67517;BME280;54359;59.124;37.910;2022-10-19T00:31:34;98943.69;;;6.65;97.02
67517;BME280;54359;59.124;37.910;2022-10-19T00:34:00;98939.41;;;6.63;96.76
67517;BME280;54359;59.124;37.910;2022-10-19T00:36:28;98959.94;;;6.74;96.62
67517;BME280;54359;59.124;37.910;2022-10-19T00:38:56;98940.25;;;6.62;96.48
67517;BME280;54359;59.124;37.910;2022-10-19T00:41:25;98951.22;;;6.53;96.61
67517;BME280;54359;59.124;37.910;2022-10-19T00:44:01;98956.38;;;6.56;97.18
67517;BME280;54359;59.124;37.910;2022-10-19T00:46:32;98962.28;;;6.54;96.89
67517;BME280;54359;59.124;37.910;2022-10-19T00:49:10;98939.16;;;6.37;96.67
67517;BME280;54359;59.124;37.910;2022-10-19T00:51:45;98953.56;;;6.32;96.85
67517;BME280;54359;59.124;37.910;2022-10-19T00:54:15;98949.38;;;6.38;96.69
67517;BME280;54359;59.124;37.910;2022-10-19T00:56:42;98953.56;;;6.33;96.94
67517;BME280;54359;59.124;37.910;2022-10-19T00:59:09;98941.56;;;6.21;96.98
67517;BME280;54359;59.124;37.910;2022-10-19T01:01:37;98938.16;;;6.22;96.83
67517;BME280;54359;59.124;37.910;2022-10-19T01:04:03;98944.09;;;6.23;97.37
67517;BME280;54359;59.124;37.910;2022-10-19T01:06:32;98951.03;;;6.32;97.42
67517;BME280;54359;59.124;37.910;2022-10-19T01:09:07;98930.44;;;6.16;97.02
67517;BME280;54359;59.124;37.910;2022-10-19T01:14:57;98962.91;;;6.30;97.21
67517;BME280;54359;59.124;37.910;2022-10-19T01:20:32;98954.34;;;6.24;97.33
67517;BME280;54359;59.124;37.910;2022-10-19T01:26:51;98950.09;;;6.23;97.01
67517;BME280;54359;59.124;37.910;2022-10-19T01:32:04;98957.84;;;6.34;97.73
67517;BME280;54359;59.124;37.910;2022-10-19T01:34:54;98928.88;;;6.31;97.68
67517;BME280;54359;59.124;37.910;2022-10-19T01:37:45;98955.44;;;6.47;97.81
67517;BME280;54359;59.124;37.910;2022-10-19T01:43:36;98949.56;;;6.55;98.00
67517;BME280;54359;59.124;37.910;2022-10-19T01:46:16;98949.59;;;6.58;98.10
67517;BME280;54359;59.124;37.910;2022-10-19T01:48:50;98929.13;;;6.55;97.45
67517;BME280;54359;59.124;37.910;2022-10-19T01:51:29;98938.56;;;6.62;97.66
67517;BME280;54359;59.124;37.910;2022-10-19T01:54:00;98926.56;;;6.52;97.86
67517;BME280;54359;59.124;37.910;2022-10-19T01:56:30;98939.41;;;6.61;97.32
67517;BME280;54359;59.124;37.910;2022-10-19T01:59:02;98908.66;;;6.49;97.59
67517;BME280;54359;59.124;37.910;2022-10-19T02:01:33;98937.69;;;6.62;97.44
67517;BME280;54359;59.124;37.910;2022-10-19T02:04:01;98923.97;;;6.51;97.24
67517;BME280;54359;59.124;37.910;2022-10-19T02:06:29;98913.69;;;6.43;97.28
67517;BME280;54359;59.124;37.910;2022-10-19T02:08:57;98931.69;;;6.57;97.43
67517;BME280;54359;59.124;37.910;2022-10-19T02:11:25;98913.66;;;6.41;97.85
67517;BME280;54359;59.124;37.910;2022-10-19T02:14:04;98935.97;;;6.59;97.71
67517;BME280;54359;59.124;37.910;2022-10-19T02:16:37;98906.88;;;6.43;97.87
67517;BME280;54359;59.124;37.910;2022-10-19T02:19:09;98933.50;;;6.67;97.77
67517;BME280;54359;59.124;37.910;2022-10-19T02:21:38;98917.22;;;6.56;97.12
67517;BME280;54359;59.124;37.910;2022-10-19T02:24:06;98921.53;;;6.61;97.12
67517;BME280;54359;59.124;37.910;2022-10-19T02:26:33;98928.31;;;6.59;97.11
67517;BME280;54359;59.124;37.910;2022-10-19T02:29:00;98926.63;;;6.58;97.48
67517;BME280;54359;59.124;37.910;2022-10-19T02:31:28;98924.91;;;6.59;97.54
67517;BME280;54359;59.124;37.910;2022-10-19T02:33:54;98934.31;;;6.63;97.28
67517;BME280;54359;59.124;37.910;2022-10-19T02:36:21;98924.88;;;6.57;97.42
67517;BME280;54359;59.124;37.910;2022-10-19T02:38:48;98929.13;;;6.52;97.52
67517;BME280;54359;59.124;37.910;2022-10-19T02:41:41;98913.75;;;6.49;97.51
67517;BME280;54359;59.124;37.910;2022-10-19T02:44:09;98940.25;;;6.62;97.09
67517;BME280;54359;59.124;37.910;2022-10-19T02:46:53;98933.41;;;6.58;97.37
67517;BME280;54359;59.124;37.910;2022-10-19T02:49:38;98949.63;;;6.61;97.04
67517;BME280;54359;59.124;37.910;2022-10-19T02:52:11;98943.66;;;6.61;97.19
67517;BME280;54359;59.124;37.910;2022-10-19T02:54:39;98942.81;;;6.63;97.06
67517;BME280;54359;59.124;37.910;2022-10-19T02:57:24;98938.50;;;6.58;97.17
67517;BME280;54359;59.124;37.910;2022-10-19T02:59:53;98890.66;;;6.34;97.12
67517;BME280;54359;59.124;37.910;2022-10-19T03:02:20;98918.91;;;6.52;97.23
67517;BME280;54359;59.124;37.910;2022-10-19T03:04:46;98921.44;;;6.54;97.38
67517;BME280;54359;59.124;37.910;2022-10-19T03:07:16;98912.06;;;6.51;96.85
67517;BME280;54359;59.124;37.910;2022-10-19T03:09:43;98944.59;;;6.69;97.01
67517;BME280;54359;59.124;37.910;2022-10-19T03:12:12;98931.78;;;6.64;97.49
67517;BME280;54359;59.124;37.910;2022-10-19T03:14:40;98924.06;;;6.58;97.20
67517;BME280;54359;59.124;37.910;2022-10-19T03:17:08;98927.47;;;6.62;97.04
67517;BME280;54359;59.124;37.910;2022-10-19T03:19:42;98924.06;;;6.58;96.84
67517;BME280;54359;59.124;37.910;2022-10-19T03:22:12;98921.44;;;6.52;96.54
67517;BME280;54359;59.124;37.910;2022-10-19T03:24:42;98917.16;;;6.48;96.60
67517;BME280;54359;59.124;37.910;2022-10-19T03:27:09;98911.19;;;6.49;96.45
67517;BME280;54359;59.124;37.910;2022-10-19T03:29:34;98898.25;;;6.31;95.91
67517;BME280;54359;59.124;37.910;2022-10-19T03:32:16;98906.81;;;6.37;96.69
67517;BME280;54359;59.124;37.910;2022-10-19T03:34:42;98919.59;;;6.36;96.64
67517;BME280;54359;59.124;37.910;2022-10-19T03:37:08;98905.03;;;6.26;97.11
67517;BME280;54359;59.124;37.910;2022-10-19T03:39:34;98911.88;;;6.30;97.00
67517;BME280;54359;59.124;37.910;2022-10-19T03:42:00;98882.75;;;6.12;96.63
67517;BME280;54359;59.124;37.910;2022-10-19T03:44:26;98912.66;;;6.27;96.99
67517;BME280;54359;59.124;37.910;2022-10-19T03:46:52;98909.28;;;6.27;96.41
67517;BME280;54359;59.124;37.910;2022-10-19T03:49:18;98917.84;;;6.32;96.44
67517;BME280;54359;59.124;37.910;2022-10-19T03:51:46;98866.41;;;5.96;96.95
67517;BME280;54359;59.124;37.910;2022-10-19T03:54:14;98926.34;;;6.32;96.80
67517;BME280;54359;59.124;37.910;2022-10-19T03:56:41;98931.47;;;6.34;97.29
67517;BME280;54359;59.124;37.910;2022-10-19T03:59:11;98913.50;;;6.24;97.24
67517;BME280;54359;59.124;37.910;2022-10-19T04:01:40;98907.50;;;6.19;97.30
67517;BME280;54359;59.124;37.910;2022-10-19T04:04:10;98927.19;;;6.30;96.99
67517;BME280;54359;59.124;37.910;2022-10-19T04:06:38;98937.47;;;6.36;96.59
67517;BME280;54359;59.124;37.910;2022-10-19T04:09:06;98910.00;;;6.16;96.52
67517;BME280;54359;59.124;37.910;2022-10-19T04:11:36;98897.22;;;6.15;97.24
67517;BME280;54359;59.124;37.910;2022-10-19T04:14:06;98906.63;;;6.19;96.86
67517;BME280;54359;59.124;37.910;2022-10-19T04:16:32;98918.59;;;6.24;97.04
67517;BME280;54359;59.124;37.910;2022-10-19T04:18:59;98905.78;;;6.18;96.98
67517;BME280;54359;59.124;37.910;2022-10-19T04:21:33;98916.06;;;6.26;96.83
67517;BME280;54359;59.124;37.910;2022-10-19T04:24:08;98938.41;;;6.44;97.33
67517;BME280;54359;59.124;37.910;2022-10-19T04:26:49;98917.81;;;6.29;97.48
67517;BME280;54359;59.124;37.910;2022-10-19T04:29:17;98940.97;;;6.47;97.16
67517;BME280;54359;59.124;37.910;2022-10-19T04:31:50;98937.59;;;6.48;96.96
67517;BME280;54359;59.124;37.910;2022-10-19T04:34:17;98940.97;;;6.47;97.39
67517;BME280;54359;59.124;37.910;2022-10-19T04:36:44;98913.59;;;6.35;97.36
67517;BME280;54359;59.124;37.910;2022-10-19T04:39:10;98911.94;;;6.36;97.16
67517;BME280;54359;59.124;37.910;2022-10-19T04:41:36;98939.38;;;6.57;97.29
67517;BME280;54359;59.124;37.910;2022-10-19T04:44:04;98942.75;;;6.56;97.26
67517;BME280;54359;59.124;37.910;2022-10-19T04:46:35;98940.16;;;6.53;96.75
67517;BME280;54359;59.124;37.910;2022-10-19T04:49:09;98897.28;;;6.21;96.70
67517;BME280;54359;59.124;37.910;2022-10-19T04:51:35;98881.13;;;6.20;97.09
67517;BME280;54359;59.124;37.910;2022-10-19T04:54:02;98898.28;;;6.32;96.60
67517;BME280;54359;59.124;37.910;2022-10-19T04:56:28;98879.41;;;6.18;97.13
67517;BME280;54359;59.124;37.910;2022-10-19T04:58:56;98934.22;;;6.55;97.68
67517;BME280;54359;59.124;37.910;2022-10-19T05:01:23;98900.94;;;6.44;97.36
67517;BME280;54359;59.124;37.910;2022-10-19T05:03:59;98912.03;;;6.47;97.36
67517;BME280;54359;59.124;37.910;2022-10-19T05:06:27;98908.63;;;6.46;96.46
67517;BME280;54359;59.124;37.910;2022-10-19T05:08:53;98914.66;;;6.53;97.04
67517;BME280;54359;59.124;37.910;2022-10-19T05:11:20;98924.03;;;6.55;96.99
67517;BME280;54359;59.124;37.910;2022-10-19T05:13:47;98924.03;;;6.57;97.31
67517;BME280;54359;59.124;37.910;2022-10-19T05:16:15;98911.19;;;6.48;97.07
67517;BME280;54359;59.124;37.910;2022-10-19T05:18:49;98918.91;;;6.55;97.15
67517;BME280;54359;59.124;37.910;2022-10-19T05:21:16;98906.94;;;6.48;96.62
67517;BME280;54359;59.124;37.910;2022-10-19T05:23:42;98884.66;;;6.30;97.09
67517;BME280;54359;59.124;37.910;2022-10-19T05:26:14;98925.66;;;6.47;96.67
67517;BME280;54359;59.124;37.910;2022-10-19T05:28:48;98879.41;;;6.16;96.68
67517;BME280;54359;59.124;37.910;2022-10-19T05:31:17;98931.59;;;6.44;96.53
67517;BME280;54359;59.124;37.910;2022-10-19T05:33:45;98893.88;;;6.17;95.86
67517;BME280;54359;59.124;37.910;2022-10-19T05:36:35;98921.19;;;6.26;96.18
67517;BME280;54359;59.124;37.910;2022-10-19T05:39:13;98881.00;;;6.05;95.73
67517;BME280;54359;59.124;37.910;2022-10-19T05:41:41;98905.63;;;6.04;96.66
67517;BME280;54359;59.124;37.910;2022-10-19T05:44:12;98903.84;;;5.97;96.62
67517;BME280;54359;59.124;37.910;2022-10-19T05:46:42;98922.69;;;6.09;96.59
67517;BME280;54359;59.124;37.910;2022-10-19T05:49:10;98929.53;;;6.11;97.08
67517;BME280;54359;59.124;37.910;2022-10-19T05:51:36;98886.72;;;5.87;96.53
67517;BME280;54359;59.124;37.910;2022-10-19T05:54:02;98896.13;;;5.93;96.92
67517;BME280;54359;59.124;37.910;2022-10-19T05:56:29;98901.28;;;5.96;96.89
67517;BME280;54359;59.124;37.910;2022-10-19T05:58:58;98911.56;;;6.02;96.74
67517;BME280;54359;59.124;37.910;2022-10-19T06:01:26;98913.22;;;6.00;97.21
67517;BME280;54359;59.124;37.910;2022-10-19T06:03:54;98933.84;;;6.15;97.16
67517;BME280;54359;59.124;37.910;2022-10-19T06:06:20;98919.97;;;5.96;96.39
67517;BME280;54359;59.124;37.910;2022-10-19T06:08:46;98921.78;;;6.03;96.76
67517;BME280;54359;59.124;37.910;2022-10-19T06:11:15;98914.91;;;5.98;96.53
67517;BME280;54359;59.124;37.910;2022-10-19T06:13:43;98943.16;;;6.15;96.68
67517;BME280;54359;59.124;37.910;2022-10-19T06:16:10;98915.84;;;6.03;96.79
67517;BME280;54359;59.124;37.910;2022-10-19T06:18:38;98936.38;;;6.15;97.13
67517;BME280;54359;59.124;37.910;2022-10-19T06:21:07;98936.34;;;6.12;97.04
67517;BME280;54359;59.124;37.910;2022-10-19T06:23:35;98916.63;;;6.00;96.71
67517;BME280;54359;59.124;37.910;2022-10-19T06:26:03;98951.75;;;6.20;96.17
67517;BME280;54359;59.124;37.910;2022-10-19T06:28:30;98933.69;;;6.03;96.78
67517;BME280;54359;59.124;37.910;2022-10-19T06:30:57;98914.91;;;5.95;97.13
67517;BME280;54359;59.124;37.910;2022-10-19T06:33:23;98941.41;;;6.09;97.00
67517;BME280;54359;59.124;37.910;2022-10-19T06:35:50;98917.50;;;6.02;97.38
67517;BME280;54359;59.124;37.910;2022-10-19T06:38:15;98931.22;;;6.12;97.13
67517;BME280;54359;59.124;37.910;2022-10-19T06:40:43;98933.03;;;6.21;96.65
67517;BME280;54359;59.124;37.910;2022-10-19T06:43:09;98949.31;;;6.31;96.92
67517;BME280;54359;59.124;37.910;2022-10-19T06:45:38;98915.91;;;6.11;96.61
67517;BME280;54359;59.124;37.910;2022-10-19T06:48:43;98955.31;;;6.36;96.62
67517;BME280;54359;59.124;37.910;2022-10-19T06:51:36;98955.31;;;6.37;96.61
67517;BME280;54359;59.124;37.910;2022-10-19T06:54:16;98934.00;;;6.32;96.49
67517;BME280;54359;59.124;37.910;2022-10-19T06:57:39;98951.09;;;6.41;96.66
67517;BME280;54359;59.124;37.910;2022-10-19T07:01:10;98948.59;;;6.42;96.61
67517;BME280;54359;59.124;37.910;2022-10-19T07:03:51;98922.91;;;6.29;96.91
67517;BME280;54359;59.124;37.910;2022-10-19T07:06:46;98951.16;;;6.47;96.57
67517;BME280;54359;59.124;37.910;2022-10-19T07:09:14;98932.38;;;6.39;97.34
67517;BME280;54359;59.124;37.910;2022-10-19T07:11:46;98959.81;;;6.60;96.90
67517;BME280;54359;59.124;37.910;2022-10-19T07:14:43;98956.41;;;6.59;96.39
67517;BME280;54359;59.124;37.910;2022-10-19T07:17:42;98922.16;;;6.36;96.63
67517;BME280;54359;59.124;37.910;2022-10-19T07:20:08;98931.53;;;6.40;96.44
67517;BME280;54359;59.124;37.910;2022-10-19T07:22:35;98962.31;;;6.55;96.92
67517;BME280;54359;59.124;37.910;2022-10-19T07:25:22;98950.34;;;6.50;96.63
67517;BME280;54359;59.124;37.910;2022-10-19T07:28:22;98946.84;;;6.41;96.64
67517;BME280;54359;59.124;37.910;2022-10-19T07:30:49;98958.84;;;6.47;96.72
67517;BME280;54359;59.124;37.910;2022-10-19T07:33:15;98926.25;;;6.21;96.18
67517;BME280;54359;59.124;37.910;2022-10-19T07:35:42;98953.69;;;6.42;96.88
67517;BME280;54359;59.124;37.910;2022-10-19T07:38:12;98956.31;;;6.50;96.94
67517;BME280;54359;59.124;37.910;2022-10-19T07:40:39;98958.03;;;6.53;97.15
67517;BME280;54359;59.124;37.910;2022-10-19T07:43:05;98945.22;;;6.50;96.39
67517;BME280;54359;59.124;37.910;2022-10-19T07:45:31;98940.13;;;6.48;96.40
67517;BME280;54359;59.124;37.910;2022-10-19T07:47:58;98969.31;;;6.76;97.42
67517;BME280;54359;59.124;37.910;2022-10-19T07:50:24;98930.03;;;6.60;97.14
67517;BME280;54359;59.124;37.910;2022-10-19T07:52:53;98970.31;;;6.92;97.37
67517;BME280;54359;59.124;37.910;2022-10-19T07:55:20;98964.38;;;6.93;97.29
67517;BME280;54359;59.124;37.910;2022-10-19T07:57:47;98944.75;;;6.91;97.63
67517;BME280;54359;59.124;37.910;2022-10-19T08:00:39;98981.59;;;7.14;97.23
67517;BME280;54359;59.124;37.910;2022-10-19T08:03:06;98899.53;;;6.76;97.20
67517;BME280;54359;59.124;37.910;2022-10-19T08:05:39;98972.28;;;7.22;97.05
67517;BME280;54359;59.124;37.910;2022-10-19T08:08:05;98934.59;;;6.98;97.00
67517;BME280;54359;59.124;37.910;2022-10-19T08:10:31;98973.94;;;7.19;97.00
67517;BME280;54359;59.124;37.910;2022-10-19T08:12:57;98977.41;;;7.27;97.01
67517;BME280;54359;59.124;37.910;2022-10-19T08:15:44;98963.72;;;7.17;97.04
67517;BME280;54359;59.124;37.910;2022-10-19T08:18:12;98938.06;;;7.05;96.45
67517;BME280;54359;59.124;37.910;2022-10-19T08:20:40;98989.38;;;7.28;96.75
67517;BME280;54359;59.124;37.910;2022-10-19T08:23:06;98951.72;;;7.05;96.67
67517;BME280;54359;59.124;37.910;2022-10-19T08:25:37;98957.63;;;7.03;96.41
67517;BME280;54359;59.124;37.910;2022-10-19T08:28:03;98945.63;;;6.90;96.24
67517;BME280;54359;59.124;37.910;2022-10-19T08:30:29;98981.56;;;7.13;96.67
67517;BME280;54359;59.124;37.910;2022-10-19T08:32:58;98968.75;;;7.08;96.62
67517;BME280;54359;59.124;37.910;2022-10-19T08:35:26;98986.75;;;7.23;96.71
67517;BME280;54359;59.124;37.910;2022-10-19T08:37:54;98958.56;;;7.13;97.23
67517;BME280;54359;59.124;37.910;2022-10-19T08:40:27;98996.25;;;7.40;97.22
67517;BME280;54359;59.124;37.910;2022-10-19T08:43:04;99003.22;;;7.62;97.13
67517;BME280;54359;59.124;37.910;2022-10-19T08:45:46;99004.16;;;7.69;96.55
67517;BME280;54359;59.124;37.910;2022-10-19T08:48:30;98998.19;;;7.73;96.78
67517;BME280;54359;59.124;37.910;2022-10-19T08:51:06;98987.13;;;7.77;97.23
67517;BME280;54359;59.124;37.910;2022-10-19T08:53:54;98982.03;;;7.82;97.56
67517;BME280;54359;59.124;37.910;2022-10-19T08:56:31;99005.25;;;8.19;97.98
67517;BME280;54359;59.124;37.910;2022-10-19T08:59:29;98980.50;;;8.21;96.93
67517;BME280;54359;59.124;37.910;2022-10-19T09:02:17;99006.16;;;8.33;96.32
67517;BME280;54359;59.124;37.910;2022-10-19T09:11:05;98986.44;;;8.15;96.43
67517;BME280;54359;59.124;37.910;2022-10-19T09:13:45;98962.56;;;8.10;96.43
67517;BME280;54359;59.124;37.910;2022-10-19T09:16:18;98997.69;;;8.43;96.96
67517;BME280;54359;59.124;37.910;2022-10-19T09:18:45;98975.50;;;8.44;97.04
67517;BME280;54359;59.124;37.910;2022-10-19T09:26:28;98982.41;;;8.86;96.77
67517;BME280;54359;59.124;37.910;2022-10-19T09:29:10;98996.09;;;8.93;95.39
67517;BME280;54359;59.124;37.910;2022-10-19T09:31:42;98953.34;;;8.55;96.52
67517;BME280;54359;59.124;37.910;2022-10-19T09:34:40;98999.47;;;8.75;96.00
67517;BME280;54359;59.124;37.910;2022-10-19T09:37:52;99008.00;;;8.71;95.32
67517;BME280;54359;59.124;37.910;2022-10-19T09:40:39;99012.25;;;8.58;95.21
67517;BME280;54359;59.124;37.910;2022-10-19T09:43:10;98942.06;;;8.07;95.07
67517;BME280;54359;59.124;37.910;2022-10-19T09:46:11;98949.72;;;8.07;95.05
67517;BME280;54359;59.124;37.910;2022-10-19T09:48:49;98965.13;;;8.19;95.75
67517;BME280;54359;59.124;37.910;2022-10-19T09:51:17;99012.19;;;8.46;95.85
67517;BME280;54359;59.124;37.910;2022-10-19T09:53:52;98979.72;;;8.33;96.09
67517;BME280;54359;59.124;37.910;2022-10-19T09:56:26;98942.06;;;8.13;96.21
67517;BME280;54359;59.124;37.910;2022-10-19T09:59:20;99008.00;;;8.57;95.55
67517;BME280;54359;59.124;37.910;2022-10-19T10:02:01;99000.28;;;8.56;95.26
67517;BME280;54359;59.124;37.910;2022-10-19T10:04:29;99007.09;;;8.49;95.33
67517;BME280;54359;59.124;37.910;2022-10-19T10:06:55;98989.06;;;8.29;95.35
67517;BME280;54359;59.124;37.910;2022-10-19T10:09:25;98987.34;;;8.19;95.84
67517;BME280;54359;59.124;37.910;2022-10-19T10:11:53;98977.91;;;8.13;95.54
67517;BME280;54359;59.124;37.910;2022-10-19T10:14:29;99031.78;;;8.35;95.34
67517;BME280;54359;59.124;37.910;2022-10-19T10:17:01;99026.59;;;8.22;95.25
67517;BME280;54359;59.124;37.910;2022-10-19T10:19:30;99007.72;;;8.03;95.44
67517;BME280;54359;59.124;37.910;2022-10-19T10:21:57;98992.31;;;7.91;95.60
67517;BME280;54359;59.124;37.910;2022-10-19T10:24:28;99015.38;;;7.99;95.46
67517;BME280;54359;59.124;37.910;2022-10-19T10:27:37;99036.75;;;8.07;95.63
67517;BME280;54359;59.124;37.910;2022-10-19T10:30:35;99037.59;;;8.03;95.25
67517;BME280;54359;59.124;37.910;2022-10-19T10:33:04;99012.78;;;7.88;95.97
67517;BME280;54359;59.124;37.910;2022-10-19T10:35:45;99007.63;;;7.85;95.39
67517;BME280;54359;59.124;37.910;2022-10-19T10:38:24;99043.56;;;8.03;95.56
67517;BME280;54359;59.124;37.910;2022-10-19T10:43:56;99043.53;;;7.99;95.86
67517;BME280;54359;59.124;37.910;2022-10-19T10:50:04;99007.56;;;7.70;95.69
67517;BME280;54359;59.124;37.910;2022-10-19T10:52:33;99012.66;;;7.70;95.52
67517;BME280;54359;59.124;37.910;2022-10-19T10:57:37;99014.31;;;7.64;96.07
67517;BME280;54359;59.124;37.910;2022-10-19T11:00:21;99030.59;;;7.71;96.12
67517;BME280;54359;59.124;37.910;2022-10-19T11:05:51;99037.38;;;7.71;96.18
67517;BME280;54359;59.124;37.910;2022-10-19T11:10:50;99035.72;;;7.76;96.64
67517;BME280;54359;59.124;37.910;2022-10-19T11:13:42;99049.44;;;7.89;96.78
67517;BME280;54359;59.124;37.910;2022-10-19T11:16:12;99052.03;;;7.92;96.64
67517;BME280;54359;59.124;37.910;2022-10-19T11:32:45;99038.34;;;7.83;96.47
67517;BME280;54359;59.124;37.910;2022-10-19T11:35:44;98999.78;;;7.53;96.19
67517;BME280;54359;59.124;37.910;2022-10-19T11:47:31;99058.75;;;7.79;95.93
67517;BME280;54359;59.124;37.910;2022-10-19T12:11:37;99000.38;;;7.18;96.84
67517;BME280;54359;59.124;37.910;2022-10-19T12:24:33;99058.00;;;7.95;96.11
67517;BME280;54359;59.124;37.910;2022-10-19T12:27:03;99053.69;;;7.82;96.07
67517;BME280;54359;59.124;37.910;2022-10-19T12:29:42;99051.00;;;7.63;95.45
67517;BME280;54359;59.124;37.910;2022-10-19T12:32:14;99062.03;;;7.55;95.92
67517;BME280;54359;59.124;37.910;2022-10-19T12:35:06;99058.47;;;7.39;95.88
67517;BME280;54359;59.124;37.910;2022-10-19T12:37:48;99077.19;;;7.35;95.77
67517;BME280;54359;59.124;37.910;2022-10-19T12:41:21;99071.91;;;7.16;95.87
67517;BME280;54359;59.124;37.910;2022-10-19T12:46:40;99086.19;;;6.99;95.92
67517;BME280;54359;59.124;37.910;2022-10-19T12:52:08;99064.75;;;6.81;95.84
67517;BME280;54359;59.124;37.910;2022-10-19T12:54:37;99084.41;;;6.87;95.84
67517;BME280;54359;59.124;37.910;2022-10-19T12:57:22;99091.25;;;6.91;95.85
67517;BME280;54359;59.124;37.910;2022-10-19T13:00:18;99083.59;;;6.91;96.29
67517;BME280;54359;59.124;37.910;2022-10-19T13:03:06;99104.28;;;7.19;97.15
67517;BME280;54359;59.124;37.910;2022-10-19T13:05:58;99087.41;;;7.35;97.32
67517;BME280;54359;59.124;37.910;2022-10-19T13:09:19;99090.94;;;7.48;97.68
67517;BME280;54359;59.124;37.910;2022-10-19T13:11:24;99078.13;;;7.44;97.03
67517;BME280;54359;59.124;37.910;2022-10-19T13:13:59;99096.94;;;7.53;96.53
67517;BME280;54359;59.124;37.910;2022-10-19T13:16:31;99097.88;;;7.64;96.79
67517;BME280;54359;59.124;37.910;2022-10-19T13:22:27;99103.94;;;7.75;96.46
67517;BME280;54359;59.124;37.910;2022-10-19T13:25:24;99110.66;;;7.62;96.33
67517;BME280;54359;59.124;37.910;2022-10-19T13:41:23;99116.78;;;6.90;95.86
67517;BME280;54359;59.124;37.910;2022-10-19T13:50:42;99121.56;;;6.63;95.86
67517;BME280;54359;59.124;37.910;2022-10-19T13:54:15;99124.88;;;6.55;95.87
67517;BME280;54359;59.124;37.910;2022-10-19T13:56:37;99122.97;;;6.41;95.88
67517;BME280;54359;59.124;37.910;2022-10-19T13:59:50;99140.00;;;6.41;95.77
67517;BME280;54359;59.124;37.910;2022-10-19T14:11:02;99153.88;;;5.99;95.62
67517;BME280;54359;59.124;37.910;2022-10-19T14:13:30;99156.25;;;5.91;95.48
67517;BME280;54359;59.124;37.910;2022-10-19T14:15:58;99154.44;;;5.82;94.84
67517;BME280;54359;59.124;37.910;2022-10-19T14:18:31;99156.00;;;5.74;95.26
67517;BME280;54359;59.124;37.910;2022-10-19T14:21:08;99172.88;;;5.68;95.38
67517;BME280;54359;59.124;37.910;2022-10-19T14:23:36;99160.75;;;5.54;95.82
67517;BME280;54359;59.124;37.910;2022-10-19T14:26:12;99170.03;;;5.51;95.38
67517;BME280;54359;59.124;37.910;2022-10-19T14:28:41;99160.47;;;5.39;95.62
67517;BME280;54359;59.124;37.910;2022-10-19T14:31:17;99179.25;;;5.44;95.33
67517;BME280;54359;59.124;37.910;2022-10-19T14:33:48;99175.88;;;5.45;96.33
67517;BME280;54359;59.124;37.910;2022-10-19T14:36:28;99153.56;;;5.32;96.18
67517;BME280;54359;59.124;37.910;2022-10-19T14:38:57;99168.13;;;5.39;96.33
67517;BME280;54359;59.124;37.910;2022-10-19T14:41:33;99163.91;;;5.41;96.88
67517;BME280;54359;59.124;37.910;2022-10-19T14:44:01;99163.09;;;5.42;96.08
67517;BME280;54359;59.124;37.910;2022-10-19T14:46:55;99187.16;;;5.58;96.52
67517;BME280;54359;59.124;37.910;2022-10-19T14:49:32;99189.81;;;5.64;96.39
67517;BME280;54359;59.124;37.910;2022-10-19T14:52:02;99192.38;;;5.65;96.59
67517;BME280;54359;59.124;37.910;2022-10-19T14:54:34;99195.88;;;5.71;96.92
67517;BME280;54359;59.124;37.910;2022-10-19T14:57:16;99198.34;;;5.68;96.80
67517;BME280;54359;59.124;37.910;2022-10-19T14:59:53;99212.09;;;5.74;96.54
67517;BME280;54359;59.124;37.910;2022-10-19T15:02:22;99206.13;;;5.74;96.53
67517;BME280;54359;59.124;37.910;2022-10-19T15:04:50;99215.44;;;5.72;96.95
67517;BME280;54359;59.124;37.910;2022-10-19T15:07:29;99212.97;;;5.76;97.01
67517;BME280;54359;59.124;37.910;2022-10-19T15:10:00;99220.66;;;5.79;96.29
67517;BME280;54359;59.124;37.910;2022-10-19T15:12:39;99219.78;;;5.77;96.91
67517;BME280;54359;59.124;37.910;2022-10-19T15:17:54;99231.81;;;5.86;97.15
67517;BME280;54359;59.124;37.910;2022-10-19T15:20:27;99224.13;;;5.83;96.48
67517;BME280;54359;59.124;37.910;2022-10-19T15:22:57;99231.88;;;5.88;96.70
67517;BME280;54359;59.124;37.910;2022-10-19T15:25:38;99218.06;;;5.75;96.38
67517;BME280;54359;59.124;37.910;2022-10-19T15:28:35;99238.63;;;5.85;96.61
67517;BME280;54359;59.124;37.910;2022-10-19T15:31:05;99194.81;;;5.58;96.86
67517;BME280;54359;59.124;37.910;2022-10-19T15:33:52;99232.50;;;5.74;96.87
67517;BME280;54359;59.124;37.910;2022-10-19T15:36:24;99247.09;;;5.83;96.92
67517;BME280;54359;59.124;37.910;2022-10-19T15:39:12;99243.56;;;5.75;96.55
67517;BME280;54359;59.124;37.910;2022-10-19T15:41:47;99240.84;;;5.67;96.07
67517;BME280;54359;59.124;37.910;2022-10-19T15:45:26;99230.25;;;5.44;96.79
67517;BME280;54359;59.124;37.910;2022-10-19T15:54:01;99257.53;;;5.51;96.14
67517;BME280;54359;59.124;37.910;2022-10-19T15:56:36;99237.84;;;5.42;96.77
67517;BME280;54359;59.124;37.910;2022-10-19T15:59:26;99216.41;;;5.31;96.92
67517;BME280;54359;59.124;37.910;2022-10-19T16:04:58;99252.53;;;5.54;96.41